createdAt,value
2017-11-20T00:00:32.400Z,66
2017-11-20T00:01:34.764Z,66
2017-11-20T00:02:37.341Z,66.1
2017-11-20T00:03:39.714Z,66.3
2017-11-20T00:04:42.102Z,66
2017-11-20T00:05:44.464Z,66.1
2017-11-20T00:06:46.843Z,66
2017-11-20T00:07:49.628Z,66
2017-11-20T00:08:52.312Z,65.9
2017-11-20T00:09:54.680Z,66.1
2017-11-20T00:10:57.049Z,66
2017-11-20T00:11:59.410Z,66
2017-11-20T00:13:01.864Z,66.1
2017-11-20T00:14:04.234Z,66
2017-11-20T00:15:06.619Z,66
2017-11-20T00:16:08.980Z,65.9
2017-11-20T00:17:11.354Z,66.1
2017-11-20T00:18:13.852Z,66.2
2017-11-20T00:19:16.519Z,66.2
2017-11-20T00:20:18.886Z,66.2
2017-11-20T00:21:21.261Z,66.3
2017-11-20T00:22:23.904Z,66.3
2017-11-20T00:23:26.377Z,66.3
2017-11-20T00:24:29.073Z,66.4
2017-11-20T00:25:31.442Z,66.4
2017-11-20T00:26:33.818Z,66.4
2017-11-20T00:27:36.751Z,66.4
2017-11-20T00:28:39.128Z,66.4
2017-11-20T00:29:41.503Z,66.5
2017-11-20T00:30:43.867Z,66.4
2017-11-20T00:31:46.233Z,66.3
2017-11-20T00:32:48.615Z,66.3
2017-11-20T00:33:51.003Z,66.3
2017-11-20T00:34:53.377Z,66.3
2017-11-20T00:35:55.741Z,66.3
2017-11-20T00:36:58.108Z,66.2
2017-11-20T00:38:00.480Z,66.4
2017-11-20T00:39:02.860Z,66.3
2017-11-20T00:40:05.506Z,66.2
2017-11-20T00:41:08.158Z,66.3
2017-11-20T00:42:10.522Z,66.4
2017-11-20T00:43:12.893Z,66.4
2017-11-20T00:44:15.281Z,66.4
2017-11-20T00:45:17.657Z,66.4
2017-11-20T00:46:20.015Z,66.5
2017-11-20T00:47:22.383Z,66.4
2017-11-20T00:48:25.060Z,66.5
2017-11-20T00:49:27.430Z,66.5
2017-11-20T00:50:29.791Z,66.4
2017-11-20T00:51:32.163Z,66.4
2017-11-20T00:52:34.527Z,66.4
2017-11-20T00:53:36.903Z,66.4
2017-11-20T00:54:39.282Z,66.4
2017-11-20T00:55:41.645Z,66.5
2017-11-20T00:56:44.020Z,66.4
2017-11-20T00:57:46.389Z,66.4
2017-11-20T00:58:49.048Z,66.3
2017-11-20T00:59:51.405Z,66.2
2017-11-20T01:00:54.086Z,66.1
2017-11-20T01:01:56.765Z,66.2
2017-11-20T01:02:59.433Z,66.1
2017-11-20T01:04:01.809Z,66
2017-11-20T01:05:04.192Z,66
2017-11-20T01:06:06.553Z,66
2017-11-20T01:07:09.210Z,66
2017-11-20T01:08:11.585Z,66.1
2017-11-20T01:09:13.956Z,66.1
2017-11-20T01:10:16.614Z,66
2017-11-20T01:11:18.987Z,66.1
2017-11-20T01:12:21.654Z,66.1
2017-11-20T01:13:24.037Z,66.2
2017-11-20T01:14:26.413Z,66.1
2017-11-20T01:15:28.782Z,66.1
2017-11-20T01:16:31.723Z,66
2017-11-20T01:17:34.106Z,66
2017-11-20T01:18:36.489Z,66
2017-11-20T01:19:38.869Z,65.9
2017-11-20T01:20:41.245Z,65.9
2017-11-20T01:21:43.618Z,65.9
2017-11-20T01:22:45.999Z,65.8
2017-11-20T01:23:48.369Z,65.8
2017-11-20T01:24:50.738Z,65.8
2017-11-20T01:25:53.111Z,65.8
2017-11-20T01:26:55.464Z,65.8
2017-11-20T01:27:57.836Z,65.8
2017-11-20T01:29:00.209Z,65.6
2017-11-20T01:30:02.583Z,65.8
2017-11-20T01:31:04.958Z,65.8
2017-11-20T01:32:07.330Z,65.8
2017-11-20T01:33:09.986Z,65.7
2017-11-20T01:34:12.366Z,65.7
2017-11-20T01:35:14.753Z,65.7
2017-11-20T01:36:17.413Z,65.6
2017-11-20T01:37:19.806Z,65.7
2017-11-20T01:38:22.440Z,65.8
2017-11-20T01:39:24.807Z,65.8
2017-11-20T01:40:27.201Z,65.8
2017-11-20T01:41:29.830Z,65.8
2017-11-20T01:42:32.209Z,65.8
2017-11-20T01:43:34.588Z,65.9
2017-11-20T01:44:37.245Z,65.8
2017-11-20T01:45:39.628Z,65.9
2017-11-20T01:46:41.997Z,65.9
2017-11-20T01:47:44.364Z,66
2017-11-20T01:48:46.730Z,66.1
2017-11-20T01:49:49.123Z,66
2017-11-20T01:50:51.778Z,66
2017-11-20T01:51:54.154Z,66
2017-11-20T01:52:56.521Z,65.9
2017-11-20T01:53:58.893Z,66
2017-11-20T01:55:01.268Z,66.1
2017-11-20T01:56:03.630Z,66.2
2017-11-20T01:57:05.996Z,66.2
2017-11-20T01:58:08.365Z,66.2
2017-11-20T01:59:10.735Z,66.2
2017-11-20T02:00:13.107Z,66.3
2017-11-20T02:01:15.478Z,66.2
2017-11-20T02:02:18.140Z,66.3
2017-11-20T02:03:20.520Z,66.3
2017-11-20T02:04:22.881Z,66.3
2017-11-20T02:05:25.259Z,66.3
2017-11-20T02:06:27.638Z,66.3
2017-11-20T02:07:30.007Z,66.3
2017-11-20T02:08:32.381Z,66.4
2017-11-20T02:09:34.731Z,66.4
2017-11-20T02:10:37.106Z,66.4
2017-11-20T02:11:39.499Z,66.4
2017-11-20T02:12:42.481Z,66.4
2017-11-20T02:13:44.852Z,66.4
2017-11-20T02:14:47.224Z,66.4
2017-11-20T02:15:49.599Z,66.4
2017-11-20T02:16:51.976Z,66.4
2017-11-20T02:17:54.349Z,66.3
2017-11-20T02:18:56.719Z,66.4
2017-11-20T02:19:59.097Z,66.4
2017-11-20T02:21:01.481Z,66.4
2017-11-20T02:22:03.847Z,66.4
2017-11-20T02:23:06.233Z,66.4
2017-11-20T02:24:08.602Z,66.4
2017-11-20T02:25:10.980Z,66.3
2017-11-20T02:26:13.353Z,66.4
2017-11-20T02:27:15.729Z,66.4
2017-11-20T02:28:18.089Z,66.4
2017-11-20T02:29:20.754Z,66.4
2017-11-20T02:30:23.127Z,66.5
2017-11-20T02:31:25.503Z,66.5
2017-11-20T02:32:28.461Z,66.5
2017-11-20T02:33:31.140Z,66.4
2017-11-20T02:34:33.509Z,66.4
2017-11-20T02:35:35.878Z,66.4
2017-11-20T02:36:38.254Z,66.4
2017-11-20T02:37:41.771Z,66.4
2017-11-20T02:38:44.143Z,66.4
2017-11-20T02:39:46.798Z,66.4
2017-11-20T02:40:49.164Z,66.5
2017-11-20T02:41:51.827Z,66.4
2017-11-20T02:42:54.198Z,66.5
2017-11-20T02:43:56.861Z,66.5
2017-11-20T02:44:59.529Z,66.6
2017-11-20T02:46:02.211Z,66.7
2017-11-20T02:47:05.129Z,66.7
2017-11-20T02:48:07.497Z,66.8
2017-11-20T02:49:09.909Z,66.8
2017-11-20T02:50:12.384Z,66.8
2017-11-20T02:51:15.032Z,66.8
2017-11-20T02:52:17.409Z,66.8
2017-11-20T02:53:20.074Z,66.9
2017-11-20T02:54:22.455Z,67
2017-11-20T02:55:24.825Z,67
2017-11-20T02:56:27.179Z,67
2017-11-20T02:57:29.551Z,67.2
2017-11-20T02:58:31.928Z,67.1
2017-11-20T02:59:34.290Z,67.3
2017-11-20T03:00:36.695Z,67.3
2017-11-20T03:01:39.045Z,67.5
2017-11-20T03:02:41.412Z,67.5
2017-11-20T03:03:43.799Z,67.6
2017-11-20T03:04:46.157Z,67.6
2017-11-20T03:05:48.529Z,67.8
2017-11-20T03:06:50.909Z,67.7
2017-11-20T03:07:53.588Z,67.7
2017-11-20T03:08:55.940Z,67.8
2017-11-20T03:09:58.325Z,68
2017-11-20T03:11:00.704Z,68
2017-11-20T03:12:03.076Z,68
2017-11-20T03:13:05.453Z,68
2017-11-20T03:14:07.826Z,68.1
2017-11-20T03:15:10.229Z,68.1
2017-11-20T03:16:12.573Z,68.1
2017-11-20T03:17:14.947Z,68.2
2017-11-20T03:18:17.317Z,68
2017-11-20T03:19:19.679Z,68.1
2017-11-20T03:20:22.057Z,68
2017-11-20T03:21:24.420Z,67.9
2017-11-20T03:22:26.790Z,67.9
2017-11-20T03:23:29.162Z,67.9
2017-11-20T03:24:31.538Z,67.9
2017-11-20T03:25:33.910Z,67.9
2017-11-20T03:26:36.295Z,67.9
2017-11-20T03:27:38.665Z,67.9
2017-11-20T03:28:41.040Z,67.9
2017-11-20T03:29:43.418Z,67.9
2017-11-20T03:30:45.785Z,68
2017-11-20T03:31:48.154Z,68
2017-11-20T03:32:50.517Z,67.8
2017-11-20T03:33:52.878Z,67.9
2017-11-20T03:34:55.557Z,67.9
2017-11-20T03:35:57.933Z,68
2017-11-20T03:37:00.299Z,68.1
2017-11-20T03:38:02.680Z,68.1
2017-11-20T03:39:05.053Z,68.1
2017-11-20T03:40:07.716Z,68.1
2017-11-20T03:41:10.089Z,68.1
2017-11-20T03:42:12.462Z,68.2
2017-11-20T03:43:14.819Z,68.2
2017-11-20T03:44:17.194Z,68.4
2017-11-20T03:45:19.559Z,68.4
2017-11-20T03:46:22.235Z,68.4
2017-11-20T03:47:25.175Z,68.5
2017-11-20T03:48:27.548Z,68.4
2017-11-20T03:49:30.493Z,68.5
2017-11-20T03:50:32.858Z,68.4
2017-11-20T03:51:35.229Z,68.4
2017-11-20T03:52:37.616Z,68.4
2017-11-20T03:53:39.968Z,68.4
2017-11-20T03:54:42.343Z,68.3
2017-11-20T03:55:44.714Z,68.2
2017-11-20T03:56:47.092Z,68.3
2017-11-20T03:57:49.453Z,68.4
2017-11-20T03:58:51.835Z,68.2
2017-11-20T03:59:54.199Z,68.3
2017-11-20T04:00:56.564Z,68.3
2017-11-20T04:01:58.935Z,68.3
2017-11-20T04:03:01.875Z,68.4
2017-11-20T04:04:04.252Z,68.5
2017-11-20T04:05:06.914Z,68.2
2017-11-20T04:06:09.564Z,68.2
2017-11-20T04:07:11.954Z,68.3
2017-11-20T04:08:14.329Z,68.3
2017-11-20T04:09:16.781Z,68.3
2017-11-20T04:10:19.155Z,68.2
2017-11-20T04:11:21.534Z,68.2
2017-11-20T04:12:23.909Z,68.2
2017-11-20T04:13:26.284Z,68.2
2017-11-20T04:14:28.649Z,68.2
2017-11-20T04:15:31.017Z,68.2
2017-11-20T04:16:33.669Z,68.2
2017-11-20T04:17:36.052Z,68.2
2017-11-20T04:18:38.433Z,68.2
2017-11-20T04:19:40.791Z,68.2
2017-11-20T04:20:43.466Z,68.2
2017-11-20T04:21:46.144Z,68.1
2017-11-20T04:22:48.512Z,68.2
2017-11-20T04:23:50.893Z,68.2
2017-11-20T04:24:53.256Z,68.2
2017-11-20T04:25:55.621Z,68.2
2017-11-20T04:26:58.009Z,68.2
2017-11-20T04:28:00.376Z,68.2
2017-11-20T04:29:02.753Z,68.2
2017-11-20T04:30:05.135Z,68.2
2017-11-20T04:31:07.500Z,68.4
2017-11-20T04:32:09.868Z,68.4
2017-11-20T04:33:12.235Z,68.3
2017-11-20T04:34:14.610Z,68.3
2017-11-20T04:35:16.978Z,68.3
2017-11-20T04:36:19.358Z,68.4
2017-11-20T04:37:22.006Z,68.4
2017-11-20T04:38:24.433Z,68.4
2017-11-20T04:39:26.747Z,68.4
2017-11-20T04:40:29.118Z,68.5
2017-11-20T04:41:31.485Z,68.5
2017-11-20T04:42:33.861Z,68.5
2017-11-20T04:43:36.224Z,68.5
2017-11-20T04:44:38.601Z,68.5
2017-11-20T04:45:40.975Z,68.5
2017-11-20T04:46:43.348Z,68.5
2017-11-20T04:47:45.723Z,68.5
2017-11-20T04:48:48.098Z,68.6
2017-11-20T04:49:50.761Z,68.5
2017-11-20T04:50:53.152Z,68.5
2017-11-20T04:51:55.516Z,68.5
2017-11-20T04:52:57.877Z,68.5
2017-11-20T04:54:00.253Z,68.5
2017-11-20T04:55:02.626Z,68.5
2017-11-20T04:56:04.995Z,68.6
2017-11-20T04:57:07.357Z,68.6
2017-11-20T04:58:09.743Z,68.5
2017-11-20T04:59:12.117Z,68.6
2017-11-20T05:00:14.489Z,68.6
2017-11-20T05:01:16.858Z,68.7
2017-11-20T05:02:19.227Z,68.7
2017-11-20T05:03:21.595Z,68.7
2017-11-20T05:04:23.971Z,68.8
2017-11-20T05:05:26.333Z,68.8
2017-11-20T05:06:28.696Z,68.8
2017-11-20T05:07:31.367Z,68.9
2017-11-20T05:08:33.740Z,68.8
2017-11-20T05:09:36.100Z,68.8
2017-11-20T05:10:38.469Z,68.8
2017-11-20T05:11:40.841Z,68.8
2017-11-20T05:12:43.221Z,68.8
2017-11-20T05:13:45.593Z,68.8
2017-11-20T05:14:47.952Z,68.8
2017-11-20T05:15:50.331Z,68.8
2017-11-20T05:16:52.707Z,68.7
2017-11-20T05:17:55.083Z,68.8
2017-11-20T05:18:57.455Z,68.8
2017-11-20T05:19:59.823Z,68.8
2017-11-20T05:21:02.475Z,68.8
2017-11-20T05:22:05.152Z,68.8
2017-11-20T05:23:07.523Z,68.8
2017-11-20T05:24:09.885Z,68.9
2017-11-20T05:25:12.537Z,68.9
2017-11-20T05:26:14.905Z,68.9
2017-11-20T05:27:17.281Z,68.9
2017-11-20T05:28:19.658Z,68.9
2017-11-20T05:29:22.029Z,68.9
2017-11-20T05:30:24.438Z,69.1
2017-11-20T05:31:27.109Z,69
2017-11-20T05:32:29.469Z,69
2017-11-20T05:33:31.858Z,69.1
2017-11-20T05:34:34.219Z,69.1
2017-11-20T05:35:36.589Z,69.1
2017-11-20T05:36:39.244Z,69.2
2017-11-20T05:37:41.620Z,69.3
2017-11-20T05:38:43.997Z,69.4
2017-11-20T05:39:46.385Z,69.4
2017-11-20T05:40:48.751Z,69.4
2017-11-20T05:41:51.115Z,69.4
2017-11-20T05:42:53.486Z,69.5
2017-11-20T05:43:55.867Z,69.5
2017-11-20T05:44:58.229Z,69.5
2017-11-20T05:46:00.602Z,69.5
2017-11-20T05:47:02.977Z,69.6
2017-11-20T05:48:05.641Z,69.5
2017-11-20T05:49:08.003Z,69.6
2017-11-20T05:50:10.380Z,69.7
2017-11-20T05:51:13.331Z,69.5
2017-11-20T05:52:15.712Z,69.6
2017-11-20T05:53:18.084Z,69.6
2017-11-20T05:54:20.744Z,69.5
2017-11-20T05:55:23.105Z,69.7
2017-11-20T05:56:25.480Z,69.6
2017-11-20T05:57:27.869Z,69.6
2017-11-20T05:58:30.544Z,69.6
2017-11-20T05:59:32.905Z,69.7
2017-11-20T06:00:35.569Z,69.6
2017-11-20T06:01:37.938Z,69.6
2017-11-20T06:02:40.304Z,69.7
2017-11-20T06:03:42.676Z,69.5
2017-11-20T06:04:45.037Z,69.5
2017-11-20T06:05:47.412Z,69.5
2017-11-20T06:06:49.793Z,69.5
2017-11-20T06:07:52.164Z,69.5
2017-11-20T06:08:54.537Z,69.7
2017-11-20T06:09:57.205Z,69.6
2017-11-20T06:10:59.856Z,69.6
2017-11-20T06:12:02.237Z,69.6
2017-11-20T06:13:04.614Z,69.6
2017-11-20T06:14:06.977Z,69.8
2017-11-20T06:15:09.635Z,69.6
2017-11-20T06:16:12.006Z,69.7
2017-11-20T06:17:14.371Z,69.7
2017-11-20T06:18:17.051Z,69.7
2017-11-20T06:19:19.704Z,69.7
2017-11-20T06:20:22.081Z,69.7
2017-11-20T06:21:24.745Z,69.7
2017-11-20T06:22:27.125Z,69.8
2017-11-20T06:23:29.492Z,69.8
2017-11-20T06:24:31.868Z,69.7
2017-11-20T06:25:34.241Z,69.7
2017-11-20T06:26:36.612Z,69.8
2017-11-20T06:27:38.999Z,69.7
2017-11-20T06:28:41.368Z,69.8
2017-11-20T06:29:43.737Z,69.8
2017-11-20T06:30:46.091Z,69.9
2017-11-20T06:31:48.462Z,69.9
2017-11-20T06:32:50.844Z,69.8
2017-11-20T06:33:53.216Z,69.7
2017-11-20T06:34:55.599Z,69.7
2017-11-20T06:35:57.958Z,69.7
2017-11-20T06:37:00.334Z,69.6
2017-11-20T06:38:02.718Z,69.6
2017-11-20T06:39:05.086Z,69.6
2017-11-20T06:40:07.731Z,69.7
2017-11-20T06:41:10.112Z,69.6
2017-11-20T06:42:12.484Z,69.7
2017-11-20T06:43:14.861Z,69.7
2017-11-20T06:44:17.236Z,69.7
2017-11-20T06:45:19.600Z,69.7
2017-11-20T06:46:21.986Z,69.8
2017-11-20T06:47:24.653Z,69.7
2017-11-20T06:48:27.020Z,69.8
2017-11-20T06:49:29.391Z,69.6
2017-11-20T06:50:31.786Z,69.6
2017-11-20T06:51:34.166Z,69.5
2017-11-20T06:52:36.546Z,69.5
2017-11-20T06:53:39.209Z,69.5
2017-11-20T06:54:41.564Z,69.5
2017-11-20T06:55:43.934Z,69.5
2017-11-20T06:56:46.317Z,69.5
2017-11-20T06:57:48.676Z,69.4
2017-11-20T06:58:51.047Z,69.4
2017-11-20T06:59:53.415Z,69.4
2017-11-20T07:00:55.789Z,69.4
2017-11-20T07:01:58.157Z,69.5
2017-11-20T07:03:00.540Z,69.4
2017-11-20T07:04:02.906Z,69.4
2017-11-20T07:05:05.285Z,69.5
2017-11-20T07:06:07.663Z,69.4
2017-11-20T07:07:10.031Z,69.5
2017-11-20T07:08:12.400Z,69.6
2017-11-20T07:09:14.776Z,69.6
2017-11-20T07:10:17.433Z,69.5
2017-11-20T07:11:19.805Z,69.5
2017-11-20T07:12:22.166Z,69.5
2017-11-20T07:13:24.543Z,69.4
2017-11-20T07:14:27.193Z,69.4
2017-11-20T07:15:29.566Z,69.5
2017-11-20T07:16:31.932Z,69.5
2017-11-20T07:17:34.643Z,69.4
2017-11-20T07:18:36.989Z,69.4
2017-11-20T07:19:39.663Z,69.5
2017-11-20T07:20:42.038Z,69.6
2017-11-20T07:21:44.407Z,69.5
2017-11-20T07:22:46.791Z,69.4
2017-11-20T07:23:49.158Z,69.6
2017-11-20T07:24:51.531Z,69.8
2017-11-20T07:25:53.906Z,70
2017-11-20T07:26:56.280Z,70.2
2017-11-20T07:27:58.637Z,70.4
2017-11-20T07:29:01.011Z,70.5
2017-11-20T07:30:03.673Z,70.7
2017-11-20T07:31:06.048Z,70.8
2017-11-20T07:32:08.703Z,70.9
2017-11-20T07:33:11.076Z,71.1
2017-11-20T07:34:13.447Z,71.1
2017-11-20T07:35:16.125Z,71.1
2017-11-20T07:36:18.496Z,71.1
2017-11-20T07:37:20.858Z,71.3
2017-11-20T07:38:23.240Z,71.2
2017-11-20T07:39:25.605Z,71.1
2017-11-20T07:40:27.984Z,71
2017-11-20T07:41:30.359Z,71
2017-11-20T07:42:32.730Z,70.9
2017-11-20T07:43:35.391Z,70.9
2017-11-20T07:44:37.772Z,70.8
2017-11-20T07:45:40.145Z,70.6
2017-11-20T07:46:42.512Z,70.5
2017-11-20T07:47:44.893Z,70.4
2017-11-20T07:48:47.267Z,70.3
2017-11-20T07:49:49.648Z,70.3
2017-11-20T07:50:52.328Z,70.2
2017-11-20T07:51:54.694Z,70.1
2017-11-20T07:52:57.066Z,70.2
2017-11-20T07:53:59.724Z,70
2017-11-20T07:55:02.393Z,70
2017-11-20T07:56:04.760Z,70
2017-11-20T07:57:07.139Z,69.9
2017-11-20T07:58:09.516Z,69.9
2017-11-20T07:59:12.172Z,69.8
2017-11-20T08:00:14.546Z,69.9
2017-11-20T08:01:16.931Z,70
2017-11-20T08:02:19.290Z,70
2017-11-20T08:03:21.680Z,70.4
2017-11-20T08:04:24.053Z,70.6
2017-11-20T08:05:26.418Z,70.9
2017-11-20T08:06:28.788Z,71
2017-11-20T08:07:31.452Z,70.4
2017-11-20T08:08:33.817Z,70.6
2017-11-20T08:09:36.209Z,70.5
2017-11-20T08:10:38.593Z,70.4
2017-11-20T08:11:40.965Z,70.4
2017-11-20T08:12:43.619Z,69.9
2017-11-20T08:13:46.000Z,69.7
2017-11-20T08:14:48.380Z,69.7
2017-11-20T08:15:51.048Z,69.8
2017-11-20T08:16:53.421Z,70.1
2017-11-20T08:17:55.804Z,70.3
2017-11-20T08:18:58.177Z,70.3
2017-11-20T08:20:00.834Z,70.2
2017-11-20T08:21:03.524Z,70.2
2017-11-20T08:22:05.938Z,70.4
2017-11-20T08:23:08.303Z,70.5
2017-11-20T08:24:10.676Z,70.5
2017-11-20T08:25:13.055Z,70.5
2017-11-20T08:26:15.428Z,70.6
2017-11-20T08:27:17.807Z,70.2
2017-11-20T08:28:20.181Z,70.2
2017-11-20T08:29:22.564Z,70.2
2017-11-20T08:30:24.931Z,70.1
2017-11-20T08:31:27.321Z,70.2
2017-11-20T08:32:29.966Z,70.3
2017-11-20T08:33:32.354Z,70.4
2017-11-20T08:34:34.728Z,70.6
2017-11-20T08:35:37.124Z,70.6
2017-11-20T08:36:39.764Z,70.9
2017-11-20T08:37:42.433Z,71.3
2017-11-20T08:38:44.832Z,71.6
2017-11-20T08:39:47.498Z,71.6
2017-11-20T08:40:49.870Z,71.3
2017-11-20T08:41:52.530Z,71.5
2017-11-20T08:42:54.903Z,71.8
2017-11-20T08:43:57.578Z,71.4
2017-11-20T08:44:59.958Z,70.6
2017-11-20T08:46:02.342Z,69.1
2017-11-20T08:47:04.715Z,68.7
2017-11-20T08:48:07.095Z,68.4
2017-11-20T08:49:09.764Z,67.7
2017-11-20T08:50:12.145Z,67.4
2017-11-20T08:51:14.522Z,66.7
2017-11-20T08:52:16.907Z,66.4
2017-11-20T08:53:19.280Z,66.2
2017-11-20T08:54:21.662Z,66
2017-11-20T08:55:24.336Z,65.8
2017-11-20T08:56:26.997Z,65.8
2017-11-20T08:57:29.357Z,66
2017-11-20T08:58:31.737Z,66
2017-11-20T08:59:34.388Z,66
2017-11-20T09:00:36.775Z,65.8
2017-11-20T09:01:39.160Z,65.9
2017-11-20T09:02:41.863Z,65.8
2017-11-20T09:03:44.266Z,65.8
2017-11-20T09:04:46.856Z,65.8
2017-11-20T09:05:49.240Z,65.8
2017-11-20T09:06:51.632Z,65.8
2017-11-20T09:07:54.059Z,65.8
2017-11-20T09:08:56.449Z,65.7
2017-11-20T09:09:58.842Z,65.8
2017-11-20T09:11:01.244Z,65.7
2017-11-20T09:12:03.700Z,65.7
2017-11-20T09:13:09.210Z,65.8
2017-11-20T09:14:11.656Z,65.8
2017-11-20T09:15:14.089Z,65.9
2017-11-20T09:16:16.513Z,66.2
2017-11-20T09:17:18.949Z,66.4
2017-11-20T09:18:22.048Z,66.6
2017-11-20T09:19:24.513Z,66.9
2017-11-20T09:20:26.948Z,67.1
2017-11-20T09:21:29.390Z,67.2
2017-11-20T09:22:31.818Z,67.3
2017-11-20T09:23:34.535Z,67.1
2017-11-20T09:24:37.287Z,67
2017-11-20T09:25:39.709Z,66.9
2017-11-20T09:26:42.166Z,66.9
2017-11-20T09:27:44.598Z,67
2017-11-20T09:28:47.033Z,66.7
2017-11-20T09:29:49.476Z,66.6
2017-11-20T09:30:52.215Z,66.6
2017-11-20T09:31:54.945Z,66.5
2017-11-20T09:32:57.383Z,66.4
2017-11-20T09:33:59.797Z,66.3
2017-11-20T09:35:02.525Z,66.1
2017-11-20T09:36:05.254Z,66
2017-11-20T09:37:07.685Z,66.3
2017-11-20T09:38:10.127Z,66.3
2017-11-20T09:39:12.569Z,66.2
2017-11-20T09:40:14.997Z,66.1
2017-11-20T09:41:17.432Z,66
2017-11-20T09:42:19.879Z,66.1
2017-11-20T09:43:22.342Z,66.2
2017-11-20T09:44:24.785Z,66.2
2017-11-20T09:45:27.223Z,66.4
2017-11-20T09:46:29.670Z,66.5
2017-11-20T09:47:32.139Z,66.6
2017-11-20T09:48:34.578Z,66.6
2017-11-20T09:49:37.005Z,66.4
2017-11-20T09:50:39.763Z,66.3
2017-11-20T09:51:42.207Z,66.3
2017-11-20T09:52:44.648Z,66.3
2017-11-20T09:53:47.082Z,66.4
2017-11-20T09:54:49.508Z,66.6
2017-11-20T09:55:51.947Z,66.7
2017-11-20T09:56:54.388Z,66.9
2017-11-20T09:57:57.163Z,66.9
2017-11-20T09:58:59.951Z,67
2017-11-20T10:00:02.405Z,67.1
2017-11-20T10:01:05.166Z,67.3
2017-11-20T10:02:07.608Z,67.6
2017-11-20T10:03:10.335Z,67.7
2017-11-20T10:04:12.843Z,67.7
2017-11-20T10:05:15.262Z,67.6
2017-11-20T10:06:17.700Z,67.4
2017-11-20T10:07:20.153Z,67.4
2017-11-20T10:08:22.579Z,67.4
2017-11-20T10:09:25.042Z,67.1
2017-11-20T10:10:27.776Z,67
2017-11-20T10:11:30.212Z,67.4
2017-11-20T10:12:32.654Z,67.7
2017-11-20T10:13:35.138Z,67.9
2017-11-20T10:14:37.851Z,67.2
2017-11-20T10:15:40.346Z,66.7
2017-11-20T10:16:42.794Z,66.7
2017-11-20T10:17:45.237Z,66.6
2017-11-20T10:18:47.674Z,66.4
2017-11-20T10:19:50.148Z,66.5
2017-11-20T10:20:52.902Z,66.5
2017-11-20T10:21:55.350Z,66.4
2017-11-20T10:22:57.789Z,66.1
2017-11-20T10:24:00.214Z,66.2
2017-11-20T10:25:02.658Z,66.3
2017-11-20T10:26:05.112Z,66.3
2017-11-20T10:27:07.571Z,66.3
2017-11-20T10:28:10.000Z,66.1
2017-11-20T10:29:12.458Z,66
2017-11-20T10:30:14.876Z,66
2017-11-20T10:31:17.628Z,66
2017-11-20T10:32:20.057Z,66
2017-11-20T10:33:22.511Z,66.1
2017-11-20T10:34:25.020Z,66.1
2017-11-20T10:35:27.452Z,66.2
2017-11-20T10:36:29.889Z,66.1
2017-11-20T10:37:32.324Z,66.1
2017-11-20T10:38:34.816Z,65.8
2017-11-20T10:39:37.306Z,65.6
2017-11-20T10:40:39.784Z,65.6
2017-11-20T10:41:42.511Z,65.6
2017-11-20T10:42:45.006Z,65.7
2017-11-20T10:43:47.434Z,65.8
2017-11-20T10:44:50.152Z,65.2
2017-11-20T10:45:52.640Z,65.2
2017-11-20T10:46:55.071Z,65.2
2017-11-20T10:47:57.502Z,65.2
2017-11-20T10:48:59.977Z,64.8
2017-11-20T10:50:02.407Z,64.4
2017-11-20T10:51:04.870Z,64.5
2017-11-20T10:52:07.369Z,64.6
2017-11-20T10:53:09.808Z,64.2
2017-11-20T10:54:12.242Z,64.1
2017-11-20T10:55:14.971Z,63.7
2017-11-20T10:56:17.715Z,63.7
2017-11-20T10:57:20.177Z,63.5
2017-11-20T10:58:22.632Z,63.2
2017-11-20T10:59:25.445Z,63.2
2017-11-20T11:00:28.223Z,63.2
2017-11-20T11:01:30.668Z,63.4
2017-11-20T11:02:33.132Z,63.6
2017-11-20T11:03:35.878Z,63.8
2017-11-20T11:04:38.398Z,64
2017-11-20T11:05:40.911Z,64.3
2017-11-20T11:06:43.654Z,64.4
2017-11-20T11:07:46.091Z,64.5
2017-11-20T11:08:48.563Z,64.6
2017-11-20T11:09:51.002Z,64.5
2017-11-20T11:10:53.449Z,63.9
2017-11-20T11:11:55.927Z,64
2017-11-20T11:12:58.400Z,63.5
2017-11-20T11:14:01.443Z,63.5
2017-11-20T11:15:03.886Z,63.5
2017-11-20T11:16:06.321Z,63.6
2017-11-20T11:17:09.056Z,63.6
2017-11-20T11:18:11.525Z,63.8
2017-11-20T11:19:13.963Z,64.2
2017-11-20T11:20:16.400Z,64.5
2017-11-20T11:21:18.880Z,64.8
2017-11-20T11:22:21.301Z,64.8
2017-11-20T11:23:23.783Z,65.1
2017-11-20T11:24:26.507Z,65.1
2017-11-20T11:25:28.933Z,64.9
2017-11-20T11:26:31.472Z,64.7
2017-11-20T11:27:33.982Z,64.4
2017-11-20T11:28:36.405Z,64.4
2017-11-20T11:29:38.976Z,64.6
2017-11-20T11:30:41.403Z,64.6
2017-11-20T11:31:43.890Z,64.2
2017-11-20T11:32:46.325Z,64.1
2017-11-20T11:33:48.755Z,64
2017-11-20T11:34:51.270Z,64.1
2017-11-20T11:35:53.712Z,64.2
2017-11-20T11:36:56.173Z,64.1
2017-11-20T11:37:58.915Z,64.1
2017-11-20T11:39:01.340Z,64
2017-11-20T11:40:03.836Z,64
2017-11-20T11:41:06.333Z,64
2017-11-20T11:42:08.767Z,63.8
2017-11-20T11:43:11.274Z,63.4
2017-11-20T11:44:13.714Z,63.1
2017-11-20T11:45:16.253Z,62.7
2017-11-20T11:46:18.698Z,62.7
2017-11-20T11:47:21.131Z,62.7
2017-11-20T11:48:23.654Z,62.4
2017-11-20T11:49:26.152Z,62.4
2017-11-20T11:50:28.578Z,62.3
2017-11-20T11:51:31.006Z,62.1
2017-11-20T11:52:33.731Z,62.2
2017-11-20T11:53:36.562Z,62.2
2017-11-20T11:54:39.012Z,62.5
2017-11-20T11:55:41.448Z,62.9
2017-11-20T11:56:43.934Z,63.1
2017-11-20T11:57:46.442Z,63.1
2017-11-20T11:58:48.896Z,62.8
2017-11-20T11:59:51.356Z,62.6
2017-11-20T12:00:54.378Z,62.4
2017-11-20T12:01:56.913Z,62.5
2017-11-20T12:02:59.345Z,62.2
2017-11-20T12:04:02.338Z,62.2
2017-11-20T12:05:04.763Z,62.2
2017-11-20T12:06:07.197Z,62.3
2017-11-20T12:07:09.622Z,62.3
2017-11-20T12:08:12.348Z,62.4
2017-11-20T12:09:15.102Z,62.4
2017-11-20T12:10:17.546Z,62.5
2017-11-20T12:11:19.963Z,62.4
2017-11-20T12:12:22.694Z,62.7
2017-11-20T12:13:25.138Z,62.7
2017-11-20T12:14:27.572Z,62.6
2017-11-20T12:16:02.115Z,62.6
2017-11-20T12:17:04.548Z,62.5
2017-11-20T12:18:07.268Z,62.5
2017-11-20T12:19:09.699Z,62.5
2017-11-20T12:20:12.129Z,62.6
2017-11-20T12:21:52.910Z,62.8
2017-11-20T12:22:55.289Z,62.9
2017-11-20T12:23:57.666Z,63
2017-11-20T12:25:00.044Z,63
2017-11-20T12:26:02.419Z,63.1
2017-11-20T12:27:36.926Z,63.2
2017-11-20T12:28:39.296Z,63.1
2017-11-20T12:29:41.955Z,63.1
2017-11-20T12:30:44.350Z,63.1
2017-11-20T12:34:27.625Z,63.3
2017-11-20T12:35:30.068Z,63.5
2017-11-20T12:36:45.232Z,63.5
2017-11-20T12:37:47.952Z,63.6
2017-11-20T12:41:29.133Z,63.5
2017-11-20T12:42:31.562Z,63.5
2017-11-20T12:43:33.989Z,63.5
2017-11-20T12:45:09.973Z,63.5
2017-11-20T12:46:44.510Z,63.4
2017-11-20T12:47:47.234Z,63.5
2017-11-20T12:48:49.657Z,63.5
2017-11-20T12:49:52.083Z,63.5
2017-11-20T12:50:54.519Z,63.3
2017-11-20T12:51:56.943Z,63.5
2017-11-20T12:52:59.379Z,63.5
2017-11-20T12:55:49.272Z,63.5
2017-11-20T12:56:51.648Z,63.2
2017-11-20T12:57:54.025Z,63.3
2017-11-20T12:58:56.396Z,63.5
2017-11-20T12:59:59.354Z,63.7
2017-11-20T13:01:01.726Z,63.8
2017-11-20T13:02:04.096Z,63.9
2017-11-20T13:03:06.799Z,63.8
2017-11-20T13:04:09.179Z,63.8
2017-11-20T13:05:41.636Z,63.8
2017-11-20T13:06:44.016Z,63.6
2017-11-20T13:07:46.392Z,63.6
2017-11-20T13:08:49.030Z,63.8
2017-11-20T13:09:52.687Z,63.9
2017-11-20T13:10:55.352Z,64.1
2017-11-20T13:11:57.747Z,64.2
